Time;durP1;ratioP1;P1;durP2;ratioP2;P2;SDS_P1;SDS_P2;PMS_P1;PMS_P2;Temp;Humidity;BMP_temperature;BMP_pressure;BME280_temperature;BME280_humidity;BME280_pressure;Samples;Min_cycle;Max_cycle;Signal;HPM_P1;HPM_P2
2023/03/25 15:35:47;;;;;;;5.75;1.92;;;10.90;99.90;;;;;;5124316;27;20861;-60
2023/03/25 15:38:23;;;;;;;9.30;1.67;;;10.90;99.90;;;;;;5117884;28;20028;-59
2023/03/25 15:41:08;;;;;;;7.85;1.98;;;11.00;99.90;;;;;;5107467;28;20048;-59
2023/03/25 15:43:33;;;;;;;10.65;1.88;;;11.00;99.90;;;;;;5109864;28;20027;-59
2023/03/25 15:46:24;;;;;;;8.05;2.00;;;11.10;99.90;;;;;;5127210;28;20023;-59
2023/03/25 15:49:10;;;;;;;4.00;1.77;;;11.10;99.90;;;;;;5128178;27;20114;-60
2023/03/25 15:52:01;;;;;;;9.98;1.88;;;11.20;99.90;;;;;;5114126;28;20052;-58
2023/03/25 15:54:35;;;;;;;9.80;1.95;;;11.30;99.90;;;;;;5114215;28;20028;-58
2023/03/25 15:57:16;;;;;;;7.28;2.72;;;11.30;99.90;;;;;;5107850;28;20020;-59
2023/03/25 16:00:13;;;;;;;6.70;1.10;;;11.30;99.90;;;;;;5108371;28;20022;-61
2023/03/25 16:02:41;;;;;;;1.20;0.93;;;10.40;99.90;;;;;;5108775;28;20087;-61
2023/03/25 16:05:07;;;;;;;3.33;0.90;;;9.10;99.90;;;;;;5107757;28;20107;-60
2023/03/25 16:07:34;;;;;;;2.15;1.05;;;8.40;99.90;;;;;;5106537;28;20020;-60
2023/03/25 16:10:18;;;;;;;2.20;1.13;;;8.10;99.90;;;;;;5107906;28;20030;-61
2023/03/25 16:12:46;;;;;;;2.78;1.15;;;7.90;99.90;;;;;;5107731;28;20038;-61
2023/03/25 16:15:25;;;;;;;2.25;1.00;;;7.80;99.90;;;;;;5117738;28;20047;-61
2023/03/25 16:17:52;;;;;;;3.65;1.23;;;7.70;99.90;;;;;;5107631;28;20028;-61
2023/03/25 16:20:22;;;;;;;2.60;1.10;;;7.70;99.90;;;;;;5119118;28;20024;-61
2023/03/25 16:22:56;;;;;;;3.30;1.10;;;7.70;99.90;;;;;;5107012;28;20023;-62
2023/03/25 16:25:32;;;;;;;2.80;0.95;;;7.70;99.90;;;;;;5107207;28;20024;-61
2023/03/25 16:28:01;;;;;;;4.90;1.40;;;7.70;99.90;;;;;;5107168;28;20081;-61
2023/03/25 16:30:48;;;;;;;6.38;1.55;;;7.80;99.90;;;;;;5107980;28;20120;-61
2023/03/25 16:33:17;;;;;;;5.22;1.38;;;8.30;99.90;;;;;;5106411;28;20115;-61
2023/03/25 16:35:56;;;;;;;5.55;1.48;;;8.80;99.90;;;;;;5106778;28;20024;-61
2023/03/25 16:38:24;;;;;;;3.58;1.67;;;9.10;99.90;;;;;;5126343;28;20031;-60
2023/03/25 16:40:51;;;;;;;3.55;1.20;;;8.90;99.90;;;;;;5127712;28;20022;-60
2023/03/25 16:43:23;;;;;;;3.25;1.13;;;8.70;99.90;;;;;;5115642;28;20102;-60
2023/03/25 16:45:50;;;;;;;2.58;1.13;;;8.50;99.90;;;;;;5117499;28;20034;-60
2023/03/25 16:48:47;;;;;;;5.03;1.48;;;8.40;99.90;;;;;;5105326;28;20477;-60
2023/03/25 16:51:19;;;;;;;3.28;1.30;;;8.30;99.90;;;;;;5090898;28;20066;-60
2023/03/25 16:53:49;;;;;;;2.40;1.20;;;8.30;99.90;;;;;;5092100;28;20571;-60
2023/03/25 16:56:15;;;;;;;3.70;1.17;;;8.30;99.90;;;;;;5092626;28;20024;-61
2023/03/25 16:59:03;;;;;;;2.45;1.42;;;8.30;99.90;;;;;;5093744;28;20442;-60
2023/03/25 17:01:39;;;;;;;6.65;1.73;;;8.30;99.90;;;;;;5110823;28;20028;-60
2023/03/25 17:04:35;;;;;;;4.38;1.83;;;8.30;99.90;;;;;;5112803;28;20026;-61
2023/03/25 17:07:08;;;;;;;5.30;1.45;;;8.30;99.90;;;;;;5112918;28;20042;-60
2023/03/25 17:09:36;;;;;;;2.95;1.17;;;8.30;99.90;;;;;;5112091;28;20019;-61
2023/03/25 17:12:07;;;;;;;12.38;2.15;;;8.30;99.90;;;;;;5110735;28;20031;-62
2023/03/25 17:14:36;;;;;;;6.65;2.03;;;8.30;99.90;;;;;;5112777;28;20027;-61
2023/03/25 17:17:16;;;;;;;5.38;1.45;;;8.20;99.90;;;;;;5104716;28;20024;-62
2023/03/25 17:19:47;;;;;;;6.13;1.42;;;8.20;99.90;;;;;;5093043;28;20026;-61
2023/03/25 17:22:37;;;;;;;4.10;1.35;;;8.10;99.90;;;;;;5092836;28;20044;-61
2023/03/25 17:25:24;;;;;;;5.38;1.30;;;8.00;99.90;;;;;;5099232;28;20068;-61
2023/03/25 17:27:54;;;;;;;6.43;1.33;;;8.00;99.90;;;;;;5113527;28;20069;-61
2023/03/25 17:30:41;;;;;;;4.63;1.23;;;7.90;99.90;;;;;;5113980;28;20020;-61
2023/03/25 17:33:17;;;;;;;4.05;1.60;;;7.90;99.90;;;;;;5113074;28;20121;-61
2023/03/25 17:35:45;;;;;;;3.80;1.25;;;7.80;99.90;;;;;;5114002;28;20023;-61
2023/03/25 17:38:20;;;;;;;5.72;1.15;;;7.80;99.90;;;;;;5104148;28;20477;-61
2023/03/25 17:40:46;;;;;;;9.45;1.60;;;7.80;99.90;;;;;;5093632;28;20024;-61
2023/03/25 17:43:18;;;;;;;6.80;1.88;;;7.80;99.90;;;;;;5092774;28;20039;-61
2023/03/25 17:45:44;;;;;;;5.63;1.25;;;7.90;99.90;;;;;;5095512;28;20449;-61
2023/03/25 17:48:14;;;;;;;6.47;1.80;;;7.90;99.90;;;;;;5092612;28;20074;-61
2023/03/25 17:50:52;;;;;;;4.25;1.40;;;7.90;99.90;;;;;;5085464;28;20336;-61
2023/03/25 17:53:19;;;;;;;6.72;1.88;;;7.90;99.90;;;;;;5088200;28;20409;-60
2023/03/25 17:55:46;;;;;;;5.00;1.60;;;7.90;99.90;;;;;;5107316;28;20472;-61
2023/03/25 17:58:16;;;;;;;3.05;1.33;;;8.00;99.90;;;;;;5104046;28;20051;-60
2023/03/25 18:00:42;;;;;;;8.80;1.95;;;7.90;99.90;;;;;;5092808;28;20020;-61
2023/03/25 18:03:13;;;;;;;4.43;1.60;;;7.90;99.90;;;;;;5092068;28;20130;-61
2023/03/25 18:05:39;;;;;;;10.75;2.22;;;7.90;99.90;;;;;;5092631;28;20047;-61
2023/03/25 18:08:05;;;;;;;9.30;1.70;;;7.80;99.90;;;;;;5092139;28;20024;-61
2023/03/25 18:10:34;;;;;;;9.82;1.70;;;7.80;99.90;;;;;;5092776;28;20035;-62
2023/03/25 18:13:00;;;;;;;4.25;1.35;;;7.80;99.90;;;;;;5092293;28;20435;-61
2023/03/25 18:15:25;;;;;;;4.53;1.95;;;7.80;99.90;;;;;;5091049;28;20051;-61
2023/03/25 18:17:54;;;;;;;4.15;1.42;;;7.80;99.90;;;;;;5092425;28;20012;-61
2023/03/25 18:20:26;;;;;;;7.47;1.73;;;7.90;99.90;;;;;;5092392;28;20024;-62
2023/03/25 18:22:51;;;;;;;9.38;2.08;;;8.00;99.90;;;;;;5108640;28;20024;-61
2023/03/25 18:25:17;;;;;;;9.95;2.63;;;8.00;99.90;;;;;;5091640;28;20035;-62
2023/03/25 18:27:51;;;;;;;5.10;1.58;;;8.10;99.90;;;;;;5091767;28;20016;-61
2023/03/25 18:30:17;;;;;;;11.65;2.03;;;8.20;99.90;;;;;;5092079;28;20039;-61
2023/03/25 18:32:43;;;;;;;6.47;2.17;;;8.20;99.90;;;;;;5091397;28;20380;-63
2023/03/25 18:35:09;;;;;;;9.57;2.47;;;8.30;99.90;;;;;;5091671;28;20032;-61
2023/03/25 18:37:34;;;;;;;6.07;2.08;;;8.30;99.90;;;;;;5092903;28;20485;-60
2023/03/25 18:40:00;;;;;;;8.18;1.60;;;8.30;99.90;;;;;;5092329;28;20027;-60
2023/03/25 18:42:26;;;;;;;5.47;1.75;;;8.30;99.90;;;;;;5099289;28;20012;-61
2023/03/25 18:44:54;;;;;;;5.20;1.50;;;8.30;99.90;;;;;;5105209;28;20030;-61
2023/03/25 18:47:20;;;;;;;6.63;1.30;;;8.20;99.90;;;;;;5102568;28;20023;-60
2023/03/25 18:49:45;;;;;;;9.10;1.65;;;8.10;99.90;;;;;;5091330;28;20027;-60
2023/03/25 18:52:11;;;;;;;4.32;1.52;;;8.00;99.90;;;;;;5097013;28;20039;-61
2023/03/25 18:54:36;;;;;;;10.65;2.72;;;8.00;99.90;;;;;;5095972;28;20043;-60
2023/03/25 18:57:02;;;;;;;5.72;2.08;;;7.90;99.90;;;;;;5100383;28;20097;-61
2023/03/25 18:59:28;;;;;;;4.93;2.10;;;7.90;99.90;;;;;;5098776;28;20024;-60
2023/03/25 19:01:53;;;;;;;10.13;2.35;;;7.90;99.90;;;;;;5096303;28;20015;-61
2023/03/25 19:04:19;;;;;;;11.50;2.75;;;7.90;99.90;;;;;;5090654;28;20034;-61
2023/03/25 19:06:45;;;;;;;9.30;2.25;;;7.90;99.90;;;;;;5104561;28;20039;-61
2023/03/25 19:09:17;;;;;;;11.50;2.28;;;7.90;99.90;;;;;;5108888;28;20099;-61
2023/03/25 19:11:42;;;;;;;10.40;2.90;;;7.90;99.90;;;;;;5090790;28;20437;-61
2023/03/25 19:14:08;;;;;;;7.90;2.78;;;7.90;99.90;;;;;;5091385;28;20069;-62
2023/03/25 19:16:33;;;;;;;9.75;2.30;;;7.80;99.90;;;;;;5104766;28;20043;-61
2023/03/25 19:18:59;;;;;;;5.93;2.10;;;7.80;99.90;;;;;;5109532;28;20035;-61
